Status Flugplatz

Der Flugplatz ist offen
PPR Regelung ! PJE !!!

123.15 MHz
RWY 05/23

flüger beizli - Öffnungszeiten
Freitag+Sonntag ab 14:00
Samstag ab 11:00
Bei schönem Wetter öffnen wir früher!

Herzlich willkommen auf der Homepage des Flugplatz Biel-Kappelen

Wir freuen uns über Ihren Besuch auf unserem schönen Flugplatz im Berner Seeland. Ob zu Fuss, per Velo, Motorrad, Auto oder Flugzeug Sie sind uns jederzeit herzlich willkommen.

 

 

 


 

Wetter Kappelen

 


 

[source: ADDS]
METAR
LSZG 311350Z 25015KT 9999 FEW029 SCT037 17/11 Q1013 NOSIG =
TAF
TAF LSZG 311125Z 3112/3121 24008KT 9999 SCT015 BKN030 TEMPO 3112/3121 24012KT SHRA BKN014 =
SR / SS: 03:39 / 19:19 UTC ( 2016-05-31)

 


 

Besucherzähler

HeuteHeute48
Seit BeginnSeit Beginn64924
Guests 3

Flugplatz Biel-Kappelen LSZP - 123.15MHz - 032 384 46 84

Email: Diese E-Mail-Adresse ist vor Spambots geschützt! Zur Anzeige muss JavaScript eingeschaltet sein!
www.lszp.ch
2013 © by mb

Zum Anfang